createdAt,value
2018-09-22T00:00:23.600Z,977.01
2018-09-22T00:01:23.670Z,977.03
2018-09-22T00:02:23.717Z,977.07
2018-09-22T00:03:23.753Z,977.08
2018-09-22T00:04:23.796Z,977.09
2018-09-22T00:05:23.848Z,977.14
2018-09-22T00:06:23.925Z,977.11
2018-09-22T00:07:23.952Z,977.08
2018-09-22T00:08:24.002Z,977.10
2018-09-22T00:09:24.040Z,977.12
2018-09-22T00:10:24.091Z,977.10
2018-09-22T00:11:24.158Z,977.16
2018-09-22T00:12:24.186Z,977.18
2018-09-22T00:13:24.236Z,977.22
2018-09-22T00:14:24.285Z,977.20
2018-09-22T00:15:24.336Z,977.19
2018-09-22T00:16:24.402Z,977.19
2018-09-22T00:17:24.441Z,977.23
2018-09-22T00:18:24.481Z,977.29
2018-09-22T00:19:24.532Z,977.32
2018-09-22T00:20:24.583Z,977.28
2018-09-22T00:21:24.661Z,977.22
2018-09-22T00:22:24.682Z,977.18
2018-09-22T00:23:24.729Z,977.28
2018-09-22T00:24:24.784Z,977.27
2018-09-22T00:25:24.823Z,977.28
2018-09-22T00:26:24.920Z,977.31
2018-09-22T00:27:24.929Z,977.24
2018-09-22T00:28:24.971Z,977.19
2018-09-22T00:29:25.055Z,977.22
2018-09-22T00:30:25.073Z,977.16
2018-09-22T00:31:25.141Z,977.10
2018-09-22T00:32:25.187Z,977.14
2018-09-22T00:33:25.215Z,977.11
2018-09-22T00:34:25.266Z,977.17
2018-09-22T00:35:25.314Z,977.14
2018-09-22T00:36:25.360Z,977.17
2018-09-22T00:37:25.428Z,977.24
2018-09-22T00:38:25.461Z,977.28
2018-09-22T00:39:25.509Z,977.31
2018-09-22T00:40:25.558Z,977.26
2018-09-22T00:41:25.605Z,977.23
2018-09-22T00:42:25.678Z,977.27
2018-09-22T00:43:25.739Z,977.20
2018-09-22T00:44:25.759Z,977.23
2018-09-22T00:45:25.800Z,977.22
2018-09-22T00:46:25.865Z,977.25
2018-09-22T00:47:25.931Z,977.31
2018-09-22T00:48:26.004Z,977.37
2018-09-22T00:49:25.995Z,977.39
2018-09-22T00:50:26.065Z,977.43
2018-09-22T00:51:26.099Z,977.34
2018-09-22T00:52:26.151Z,977.27
2018-09-22T00:53:26.226Z,977.27
2018-09-22T00:54:26.244Z,977.24
2018-09-22T00:55:26.292Z,977.31
2018-09-22T00:56:26.338Z,977.33
2018-09-22T00:57:26.388Z,977.41
2018-09-22T00:58:26.457Z,977.44
2018-09-22T00:59:26.502Z,977.42
2018-09-22T01:00:26.534Z,977.46
2018-09-22T01:01:26.590Z,977.45
2018-09-22T01:02:27.209Z,977.43
2018-09-22T01:03:26.684Z,977.42
2018-09-22T01:04:26.752Z,977.45
2018-09-22T01:05:26.779Z,977.45
2018-09-22T01:06:26.831Z,977.48
2018-09-22T01:07:26.882Z,977.43
2018-09-22T01:08:26.929Z,977.46
2018-09-22T01:09:27.124Z,977.43
2018-09-22T01:10:27.024Z,977.36
2018-09-22T01:11:27.080Z,977.41
2018-09-22T01:12:27.123Z,977.47
2018-09-22T01:13:27.191Z,977.44
2018-09-22T01:14:27.240Z,977.41
2018-09-22T01:15:27.382Z,977.38
2018-09-22T01:16:27.317Z,977.39
2018-09-22T01:17:27.375Z,977.42
2018-09-22T01:18:27.421Z,977.39
2018-09-22T01:19:27.497Z,977.37
2018-09-22T01:20:27.536Z,977.32
2018-09-22T01:21:27.565Z,977.35
2018-09-22T01:22:28.212Z,977.43
2018-09-22T01:23:27.660Z,977.45
2018-09-22T01:24:27.729Z,977.48
2018-09-22T01:25:27.758Z,977.43
2018-09-22T01:26:27.850Z,977.37
2018-09-22T01:27:27.854Z,977.38
2018-09-22T01:28:27.905Z,977.40
2018-09-22T01:29:27.953Z,977.49
2018-09-22T01:30:28.004Z,977.49
2018-09-22T01:31:28.072Z,977.45
2018-09-22T01:32:28.104Z,977.44
2018-09-22T01:33:28.150Z,977.45
2018-09-22T01:34:28.202Z,977.44
2018-09-22T01:35:28.293Z,977.38
2018-09-22T01:36:28.296Z,977.40
2018-09-22T01:37:28.343Z,977.36
2018-09-22T01:38:28.400Z,977.38
2018-09-22T01:39:28.499Z,977.39
2018-09-22T01:40:28.513Z,977.38
2018-09-22T01:41:28.540Z,977.36
2018-09-22T01:42:28.607Z,977.39
2018-09-22T01:43:28.637Z,977.46
2018-09-22T01:44:28.686Z,977.45
2018-09-22T01:45:28.738Z,977.50
2018-09-22T01:46:28.824Z,977.56
2018-09-22T01:47:28.850Z,977.55
2018-09-22T01:48:28.882Z,977.60
2018-09-22T01:49:28.935Z,977.66
2018-09-22T01:50:28.979Z,977.71
2018-09-22T01:51:29.047Z,977.72
2018-09-22T01:52:29.124Z,977.69
2018-09-22T01:53:29.174Z,977.70
2018-09-22T01:54:29.177Z,977.69
2018-09-22T01:55:29.231Z,977.66
2018-09-22T01:56:29.294Z,977.65
2018-09-22T01:57:29.324Z,977.71
2018-09-22T01:58:29.393Z,977.71
2018-09-22T01:59:29.441Z,977.66
2018-09-22T02:00:29.521Z,977.67
2018-09-22T02:01:29.518Z,977.65
2018-09-22T02:02:29.578Z,977.64
2018-09-22T02:03:29.617Z,977.71
2018-09-22T02:04:29.690Z,977.79
2018-09-22T02:05:29.716Z,977.84
2018-09-22T02:06:29.760Z,977.86
2018-09-22T02:07:29.869Z,977.80
2018-09-22T02:08:29.859Z,977.81
2018-09-22T02:09:29.958Z,977.70
2018-09-22T02:10:30.032Z,977.70
2018-09-22T02:11:30.008Z,977.74
2018-09-22T02:12:30.057Z,977.75
2018-09-22T02:13:30.108Z,977.71
2018-09-22T02:14:30.172Z,977.71
2018-09-22T02:15:30.203Z,977.70
2018-09-22T02:16:30.277Z,977.74
2018-09-22T02:17:30.298Z,977.73
2018-09-22T02:18:30.356Z,977.78
2018-09-22T02:19:30.402Z,977.82
2018-09-22T02:20:30.464Z,977.89
2018-09-22T02:21:30.495Z,977.86
2018-09-22T02:22:30.548Z,977.87
2018-09-22T02:23:30.615Z,977.82
2018-09-22T02:24:30.658Z,977.75
2018-09-22T02:25:30.719Z,977.81
2018-09-22T02:26:30.744Z,977.85
2018-09-22T02:27:30.793Z,977.93
2018-09-22T02:28:30.842Z,977.89
2018-09-22T02:29:30.887Z,977.90
2018-09-22T02:30:30.963Z,977.90
2018-09-22T02:31:30.997Z,977.99
2018-09-22T02:32:31.114Z,978.02
2018-09-22T02:33:31.081Z,978.07
2018-09-22T02:34:31.135Z,978.07
2018-09-22T02:35:31.232Z,978.09
2018-09-22T02:36:31.234Z,978.13
2018-09-22T02:37:31.277Z,978.08
2018-09-22T02:38:31.335Z,978.07
2018-09-22T02:39:31.384Z,978.11
2018-09-22T02:40:31.451Z,978.05
2018-09-22T02:41:31.477Z,978.07
2018-09-22T02:42:31.528Z,978.05
2018-09-22T02:43:31.587Z,978.06
2018-09-22T02:44:31.648Z,978.00
2018-09-22T02:45:31.676Z,978.06
2018-09-22T02:46:31.745Z,978.06
2018-09-22T02:47:31.776Z,978.06
2018-09-22T02:48:31.820Z,977.98
2018-09-22T02:49:31.867Z,977.96
2018-09-22T02:50:31.955Z,977.92
2018-09-22T02:51:31.963Z,977.89
2018-09-22T02:52:32.014Z,977.89
2018-09-22T02:53:32.064Z,977.90
2018-09-22T02:54:32.110Z,977.86
2018-09-22T02:55:32.185Z,977.87
2018-09-22T02:56:32.284Z,977.85
2018-09-22T02:57:32.262Z,977.77
2018-09-22T02:58:32.306Z,977.73
2018-09-22T02:59:32.360Z,977.72
2018-09-22T03:00:32.429Z,977.68
2018-09-22T03:01:32.459Z,977.72
2018-09-22T03:02:32.504Z,977.76
2018-09-22T03:03:32.629Z,977.84
2018-09-22T03:04:32.618Z,977.91
2018-09-22T03:05:32.648Z,977.89
2018-09-22T03:06:32.703Z,977.91
2018-09-22T03:07:32.747Z,977.90
2018-09-22T03:08:32.818Z,977.85
2018-09-22T03:09:32.847Z,977.83
2018-09-22T03:10:32.976Z,977.84
2018-09-22T03:11:32.951Z,977.80
2018-09-22T03:12:32.999Z,977.83
2018-09-22T03:13:33.069Z,977.87
2018-09-22T03:14:33.093Z,977.82
2018-09-22T03:15:33.232Z,977.84
2018-09-22T03:16:33.189Z,977.89
2018-09-22T03:17:33.304Z,977.84
2018-09-22T03:18:33.329Z,977.82
2018-09-22T03:19:33.332Z,977.82
2018-09-22T03:20:33.384Z,977.83
2018-09-22T03:21:33.429Z,977.80
2018-09-22T03:22:33.479Z,977.73
2018-09-22T03:23:33.582Z,977.71
2018-09-22T03:24:33.576Z,977.68
2018-09-22T03:25:33.636Z,977.69
2018-09-22T03:26:33.672Z,977.66
2018-09-22T03:27:33.723Z,977.66
2018-09-22T03:28:33.791Z,977.54
2018-09-22T03:29:33.829Z,977.54
2018-09-22T03:30:33.874Z,977.55
2018-09-22T03:31:33.920Z,977.58
2018-09-22T03:32:33.977Z,977.59
2018-09-22T03:33:34.040Z,977.55
2018-09-22T03:34:34.064Z,977.56
2018-09-22T03:35:34.115Z,977.56
2018-09-22T03:36:34.182Z,977.54
2018-09-22T03:37:34.220Z,977.59
2018-09-22T03:38:34.259Z,977.63
2018-09-22T03:39:34.309Z,977.70
2018-09-22T03:40:34.356Z,977.70
2018-09-22T03:41:34.424Z,977.71
2018-09-22T03:42:34.458Z,977.70
2018-09-22T03:43:34.506Z,977.70
2018-09-22T03:44:34.555Z,977.71
2018-09-22T03:45:34.606Z,977.73
2018-09-22T03:46:34.669Z,977.79
2018-09-22T03:47:34.700Z,977.83
2018-09-22T03:48:34.789Z,977.87
2018-09-22T03:49:34.799Z,977.83
2018-09-22T03:50:34.851Z,977.79
2018-09-22T03:51:34.896Z,977.75
2018-09-22T03:52:34.946Z,977.66
2018-09-22T03:53:35.014Z,977.66
2018-09-22T03:54:35.045Z,977.65
2018-09-22T03:55:35.089Z,977.64
2018-09-22T03:56:35.163Z,977.72
2018-09-22T03:57:35.193Z,977.75
2018-09-22T03:58:35.735Z,977.76
2018-09-22T03:59:35.290Z,977.76
2018-09-22T04:00:35.335Z,977.73
2018-09-22T04:01:35.400Z,977.81
2018-09-22T04:02:35.436Z,977.90
2018-09-22T04:03:35.480Z,977.91
2018-09-22T04:04:35.529Z,977.84
2018-09-22T04:05:35.583Z,977.80
2018-09-22T04:06:35.672Z,977.77
2018-09-22T04:07:35.679Z,977.81
2018-09-22T04:08:35.732Z,977.80
2018-09-22T04:09:35.795Z,977.76
2018-09-22T04:10:35.822Z,977.79
2018-09-22T04:11:35.897Z,977.82
2018-09-22T04:12:35.917Z,977.82
2018-09-22T04:13:36.773Z,977.79
2018-09-22T04:14:36.023Z,977.75
2018-09-22T04:15:36.067Z,977.74
2018-09-22T04:16:36.738Z,977.72
2018-09-22T04:17:36.184Z,977.73
2018-09-22T04:18:36.226Z,977.74
2018-09-22T04:19:36.268Z,977.79
2018-09-22T04:20:37.267Z,977.79
2018-09-22T04:21:36.357Z,977.84
2018-09-22T04:22:37.269Z,977.85
2018-09-22T04:23:36.454Z,977.87
2018-09-22T04:24:36.508Z,977.86
2018-09-22T04:25:37.549Z,977.84
2018-09-22T04:26:36.629Z,977.78
2018-09-22T04:27:36.751Z,977.72
2018-09-22T04:28:36.700Z,977.70
2018-09-22T04:29:36.749Z,977.68
2018-09-22T04:30:37.242Z,977.70
2018-09-22T04:31:36.885Z,977.74
2018-09-22T04:32:36.901Z,977.78
2018-09-22T04:33:36.966Z,977.84
2018-09-22T04:34:37.024Z,977.88
2018-09-22T04:35:37.038Z,977.87
2018-09-22T04:36:37.093Z,977.86
2018-09-22T04:37:37.145Z,977.89
2018-09-22T04:38:37.740Z,977.97
2018-09-22T04:39:37.238Z,978.03
2018-09-22T04:40:37.283Z,978.12
2018-09-22T04:41:37.410Z,978.20
2018-09-22T04:42:37.378Z,978.30
2018-09-22T04:43:37.462Z,978.31
2018-09-22T04:44:37.480Z,978.34
2018-09-22T04:45:37.525Z,978.33
2018-09-22T04:46:37.572Z,978.30
2018-09-22T04:47:37.628Z,978.35
2018-09-22T04:48:37.693Z,978.32
2018-09-22T04:49:37.719Z,978.32
2018-09-22T04:50:37.770Z,978.34
2018-09-22T04:51:37.818Z,978.29
2018-09-22T04:52:37.880Z,978.32
2018-09-22T04:53:37.953Z,978.34
2018-09-22T04:54:37.963Z,978.37
2018-09-22T04:55:38.010Z,978.36
2018-09-22T04:56:38.061Z,978.40
2018-09-22T04:57:38.108Z,978.35
2018-09-22T04:58:38.196Z,978.35
2018-09-22T04:59:38.206Z,978.31
2018-09-22T05:00:38.255Z,978.30
2018-09-22T05:01:38.301Z,978.28
2018-09-22T05:02:38.352Z,978.19
2018-09-22T05:03:38.430Z,978.13
2018-09-22T05:04:38.458Z,978.14
2018-09-22T05:05:38.496Z,978.11
2018-09-22T05:06:38.554Z,978.04
2018-09-22T05:07:38.593Z,978.04
2018-09-22T05:08:38.681Z,978.00
2018-09-22T05:09:38.690Z,978.02
2018-09-22T05:10:38.739Z,977.97
2018-09-22T05:11:38.800Z,977.99
2018-09-22T05:12:38.835Z,978.02
2018-09-22T05:13:38.903Z,977.99
2018-09-22T05:14:38.959Z,977.97
2018-09-22T05:15:38.990Z,977.99
2018-09-22T05:16:39.030Z,977.96
2018-09-22T05:17:39.096Z,977.98
2018-09-22T05:18:39.178Z,977.93
2018-09-22T05:19:39.174Z,977.92
2018-09-22T05:20:39.249Z,977.92
2018-09-22T05:21:39.269Z,977.91
2018-09-22T05:22:39.318Z,977.89
2018-09-22T05:23:39.387Z,977.83
2018-09-22T05:24:39.438Z,977.87
2018-09-22T05:25:39.533Z,977.87
2018-09-22T05:26:39.511Z,977.88
2018-09-22T05:27:39.559Z,977.88
2018-09-22T05:28:39.608Z,977.93
2018-09-22T05:29:39.654Z,977.92
2018-09-22T05:30:39.731Z,977.86
2018-09-22T05:31:39.752Z,977.83
2018-09-22T05:32:39.804Z,977.80
2018-09-22T05:33:39.852Z,977.81
2018-09-22T05:34:39.904Z,977.85
2018-09-22T05:35:39.993Z,977.86
2018-09-22T05:36:40.002Z,977.84
2018-09-22T05:37:40.043Z,977.85
2018-09-22T05:38:40.115Z,977.81
2018-09-22T05:39:40.138Z,977.77
2018-09-22T05:40:40.211Z,977.73
2018-09-22T05:41:40.274Z,977.65
2018-09-22T05:42:40.284Z,977.63
2018-09-22T05:43:40.331Z,977.68
2018-09-22T05:44:40.377Z,977.74
2018-09-22T05:45:40.444Z,977.79
2018-09-22T05:46:40.492Z,977.81
2018-09-22T05:47:40.539Z,977.83
2018-09-22T05:48:40.580Z,977.83
2018-09-22T05:49:40.644Z,977.86
2018-09-22T05:50:40.667Z,977.93
2018-09-22T05:51:40.743Z,977.95
2018-09-22T05:52:40.770Z,977.95
2018-09-22T05:53:40.819Z,977.97
2018-09-22T05:54:40.862Z,977.97
2018-09-22T05:55:40.906Z,977.98
2018-09-22T05:56:40.996Z,977.97
2018-09-22T05:57:41.011Z,977.95
2018-09-22T05:58:41.781Z,978.02
2018-09-22T05:59:41.114Z,978.01
2018-09-22T06:00:41.148Z,977.94
2018-09-22T06:01:41.225Z,977.90
2018-09-22T06:02:41.262Z,977.89
2018-09-22T06:03:41.411Z,977.88
2018-09-22T06:04:41.341Z,977.83
2018-09-22T06:05:41.385Z,977.83
2018-09-22T06:06:41.481Z,977.83
2018-09-22T06:07:41.506Z,977.80
2018-09-22T06:08:41.548Z,977.79
2018-09-22T06:09:41.609Z,977.84
2018-09-22T06:10:41.640Z,977.83
2018-09-22T06:11:41.679Z,977.81
2018-09-22T06:12:41.757Z,977.84
2018-09-22T06:13:41.773Z,977.82
2018-09-22T06:14:41.875Z,977.78
2018-09-22T06:15:41.874Z,977.74
2018-09-22T06:16:41.925Z,977.77
2018-09-22T06:17:41.989Z,977.77
2018-09-22T06:18:42.017Z,977.77
2018-09-22T06:19:42.078Z,977.76
2018-09-22T06:20:42.116Z,977.78
2018-09-22T06:21:42.267Z,977.81
2018-09-22T06:22:42.235Z,977.81
2018-09-22T06:23:42.297Z,977.82
2018-09-22T06:24:42.308Z,977.89
2018-09-22T06:25:42.357Z,977.94
2018-09-22T06:26:42.404Z,977.90
2018-09-22T06:27:42.492Z,977.92
2018-09-22T06:28:42.600Z,977.95
2018-09-22T06:29:42.571Z,977.92
2018-09-22T06:30:42.621Z,977.90
2018-09-22T06:31:42.660Z,977.93
2018-09-22T06:32:42.704Z,977.91
2018-09-22T06:33:42.765Z,977.88
2018-09-22T06:34:42.798Z,977.90
2018-09-22T06:35:42.911Z,977.90
2018-09-22T06:36:42.902Z,977.90
2018-09-22T06:37:43.766Z,977.89
2018-09-22T06:38:43.028Z,977.89
2018-09-22T06:39:43.055Z,977.97
2018-09-22T06:40:43.102Z,977.97
2018-09-22T06:41:43.150Z,978.00
2018-09-22T06:42:43.287Z,978.01
2018-09-22T06:43:43.265Z,978.01
2018-09-22T06:44:43.297Z,978.02
2018-09-22T06:45:43.370Z,978.00
2018-09-22T06:46:43.391Z,978.00
2018-09-22T06:47:43.437Z,978.01
2018-09-22T06:48:43.508Z,977.97
2018-09-22T06:49:43.542Z,977.91
2018-09-22T06:50:43.591Z,977.87
2018-09-22T06:51:43.633Z,977.85
2018-09-22T06:52:43.689Z,977.85
2018-09-22T06:53:43.763Z,977.82
2018-09-22T06:54:43.829Z,977.82
2018-09-22T06:55:43.837Z,977.85
2018-09-22T06:56:43.882Z,977.92
2018-09-22T06:57:43.939Z,977.97
2018-09-22T06:58:44.004Z,978.02
2018-09-22T06:59:44.031Z,978.05
2018-09-22T07:00:44.085Z,978.07
2018-09-22T07:01:44.137Z,978.08
2018-09-22T07:02:44.182Z,978.10
2018-09-22T07:03:44.255Z,978.16
2018-09-22T07:04:44.278Z,978.22
2018-09-22T07:05:44.344Z,978.17
2018-09-22T07:06:44.376Z,978.15
2018-09-22T07:07:44.436Z,978.11
2018-09-22T07:08:44.498Z,978.12
2018-09-22T07:09:44.531Z,978.16
2018-09-22T07:10:44.577Z,978.21
2018-09-22T07:11:44.680Z,978.24
2018-09-22T07:12:44.678Z,978.18
2018-09-22T07:13:44.753Z,978.15
2018-09-22T07:14:44.776Z,978.15
2018-09-22T07:15:44.830Z,978.12
2018-09-22T07:16:44.927Z,978.13
2018-09-22T07:17:44.924Z,978.11
2018-09-22T07:18:44.989Z,978.05
2018-09-22T07:19:45.033Z,978.01
2018-09-22T07:20:45.086Z,978.01
2018-09-22T07:21:45.161Z,978.03
2018-09-22T07:22:45.177Z,978.03
2018-09-22T07:23:45.226Z,978.08
2018-09-22T07:24:45.288Z,978.06
2018-09-22T07:25:45.325Z,978.10
2018-09-22T07:26:45.410Z,978.09
2018-09-22T07:27:45.435Z,978.07
2018-09-22T07:28:45.476Z,978.11
2018-09-22T07:29:45.532Z,978.16
2018-09-22T07:30:45.583Z,978.23
2018-09-22T07:31:45.739Z,978.27
2018-09-22T07:32:45.685Z,978.33
2018-09-22T07:33:45.729Z,978.35
2018-09-22T07:34:45.777Z,978.34
2018-09-22T07:35:45.828Z,978.31
2018-09-22T07:36:45.897Z,978.35
2018-09-22T07:37:45.927Z,978.42
2018-09-22T07:38:45.998Z,978.46
2018-09-22T07:39:46.028Z,978.51
2018-09-22T07:40:46.077Z,978.53
2018-09-22T07:41:46.157Z,978.51
2018-09-22T07:42:46.238Z,978.50
2018-09-22T07:43:46.243Z,978.51
2018-09-22T07:44:46.304Z,978.51
2018-09-22T07:45:46.438Z,978.53
2018-09-22T07:46:46.380Z,978.57
2018-09-22T07:47:46.430Z,978.58
2018-09-22T07:48:46.518Z,978.63
2018-09-22T07:49:46.544Z,978.64
2018-09-22T07:50:46.603Z,978.68
2018-09-22T07:51:46.668Z,978.63
2018-09-22T07:52:46.700Z,978.65
2018-09-22T07:53:46.734Z,978.68
2018-09-22T07:54:46.787Z,978.69
2018-09-22T07:55:46.843Z,978.73
2018-09-22T07:56:46.934Z,978.69
2018-09-22T07:57:46.934Z,978.71
2018-09-22T07:58:46.983Z,978.68
2018-09-22T07:59:47.040Z,978.66
2018-09-22T08:00:47.086Z,978.63
2018-09-22T08:01:47.181Z,978.60
2018-09-22T08:02:47.181Z,978.57
2018-09-22T08:03:47.248Z,978.57
2018-09-22T08:04:47.283Z,978.54
2018-09-22T08:05:47.347Z,978.53
2018-09-22T08:06:47.435Z,978.53
2018-09-22T08:07:47.440Z,978.51
2018-09-22T08:08:47.503Z,978.51
2018-09-22T08:09:47.534Z,978.47
2018-09-22T08:10:47.589Z,978.43
2018-09-22T08:11:47.679Z,978.40
2018-09-22T08:12:47.699Z,978.39
2018-09-22T08:13:47.740Z,978.40
2018-09-22T08:14:47.789Z,978.45
2018-09-22T08:15:47.834Z,978.46
2018-09-22T08:16:47.914Z,978.47
2018-09-22T08:17:48.811Z,978.50
2018-09-22T08:18:47.987Z,978.57
2018-09-22T08:19:48.050Z,978.62
2018-09-22T08:20:48.087Z,978.64
2018-09-22T08:21:48.135Z,978.64
2018-09-22T08:22:48.211Z,978.59
2018-09-22T08:23:48.249Z,978.58
2018-09-22T08:24:48.290Z,978.57
2018-09-22T08:25:48.352Z,978.56
2018-09-22T08:26:48.403Z,978.56
2018-09-22T08:27:48.461Z,978.64
2018-09-22T08:28:48.499Z,978.61
2018-09-22T08:29:48.541Z,978.61
2018-09-22T08:30:48.602Z,978.65
2018-09-22T08:31:48.658Z,978.69
2018-09-22T08:32:48.721Z,978.71
2018-09-22T08:33:48.754Z,978.68
2018-09-22T08:34:48.801Z,978.69
2018-09-22T08:35:48.849Z,978.65
2018-09-22T08:36:48.994Z,978.67
2018-09-22T08:37:48.993Z,978.66
2018-09-22T08:38:49.022Z,978.64
2018-09-22T08:39:49.062Z,978.61
2018-09-22T08:40:49.103Z,978.58
2018-09-22T08:41:49.149Z,978.57
2018-09-22T08:42:49.215Z,978.54
2018-09-22T08:43:49.286Z,978.51
2018-09-22T08:44:49.356Z,978.49
2018-09-22T08:45:49.371Z,978.48
2018-09-22T08:46:49.407Z,978.48
2018-09-22T08:47:49.456Z,978.50
2018-09-22T08:48:49.552Z,978.47
2018-09-22T08:49:49.669Z,978.49
2018-09-22T08:50:49.608Z,978.49
2018-09-22T08:51:49.688Z,978.50
2018-09-22T08:52:49.710Z,978.51
2018-09-22T08:53:49.761Z,978.54
2018-09-22T08:54:49.849Z,978.54
2018-09-22T08:55:49.875Z,978.56
2018-09-22T08:56:49.940Z,978.58
2018-09-22T08:57:50.000Z,978.53
2018-09-22T08:58:50.025Z,978.54
2018-09-22T08:59:50.111Z,978.52
2018-09-22T09:00:50.118Z,978.54
2018-09-22T09:01:50.177Z,978.51
2018-09-22T09:02:50.218Z,978.56
2018-09-22T09:03:50.277Z,978.53
2018-09-22T09:04:50.397Z,978.54
2018-09-22T09:05:50.450Z,978.54
2018-09-22T09:06:50.429Z,978.53
2018-09-22T09:07:50.500Z,978.52
2018-09-22T09:08:50.542Z,978.51
2018-09-22T09:09:50.579Z,978.53
2018-09-22T09:10:50.642Z,978.53
2018-09-22T09:11:50.678Z,978.51
2018-09-22T09:12:50.727Z,978.51
2018-09-22T09:13:50.830Z,978.53
2018-09-22T09:14:50.938Z,978.52
2018-09-22T09:15:50.902Z,978.48
2018-09-22T09:16:50.977Z,978.45
2018-09-22T09:17:50.995Z,978.42
2018-09-22T09:18:51.032Z,978.40
2018-09-22T09:19:51.119Z,978.33
2018-09-22T09:20:51.178Z,978.36
2018-09-22T09:21:51.200Z,978.36
2018-09-22T09:22:51.244Z,978.37
2018-09-22T09:23:51.291Z,978.38
2018-09-22T09:24:51.335Z,978.32
2018-09-22T09:25:51.427Z,978.36
2018-09-22T09:26:51.439Z,978.40
2018-09-22T09:27:51.492Z,978.43
2018-09-22T09:28:51.634Z,978.44
2018-09-22T09:29:51.587Z,978.41
2018-09-22T09:30:51.663Z,978.41
2018-09-22T09:31:51.712Z,978.39
2018-09-22T09:32:51.739Z,978.41
2018-09-22T09:33:51.787Z,978.41
2018-09-22T09:34:51.850Z,978.39
2018-09-22T09:35:51.893Z,978.42
2018-09-22T09:36:51.972Z,978.42
2018-09-22T09:37:51.989Z,978.42
2018-09-22T09:38:52.040Z,978.42
2018-09-22T09:39:52.091Z,978.44
2018-09-22T09:40:52.144Z,978.44
2018-09-22T09:41:52.219Z,978.43
2018-09-22T09:42:52.368Z,978.41
2018-09-22T09:43:52.305Z,978.44
2018-09-22T09:44:52.348Z,978.38
2018-09-22T09:45:52.406Z,978.43
2018-09-22T09:46:52.461Z,978.40
2018-09-22T09:47:52.545Z,978.36
2018-09-22T09:48:52.550Z,978.29
2018-09-22T09:49:52.600Z,978.29
2018-09-22T09:50:52.660Z,978.25
2018-09-22T09:51:52.733Z,978.22
2018-09-22T09:52:52.772Z,978.20
2018-09-22T09:53:52.825Z,978.19
2018-09-22T09:54:52.882Z,978.15
2018-09-22T09:55:52.909Z,978.21
2018-09-22T09:56:52.967Z,978.18
2018-09-22T09:57:53.036Z,978.18
2018-09-22T09:58:53.084Z,978.18
2018-09-22T09:59:53.119Z,978.14
2018-09-22T10:00:53.166Z,978.12
2018-09-22T10:01:53.221Z,978.12
2018-09-22T10:02:53.272Z,978.08
2018-09-22T10:03:53.349Z,977.97
2018-09-22T10:04:53.381Z,977.91
2018-09-22T10:05:53.432Z,977.88
2018-09-22T10:06:53.481Z,977.86
2018-09-22T10:07:53.531Z,977.83
2018-09-22T10:08:53.633Z,977.87
2018-09-22T10:09:53.655Z,977.78
2018-09-22T10:10:53.688Z,977.75
2018-09-22T10:11:53.769Z,977.78
2018-09-22T10:12:53.801Z,977.79
2018-09-22T10:13:53.845Z,977.80
2018-09-22T10:14:53.917Z,977.83
2018-09-22T10:15:53.947Z,977.83
2018-09-22T10:16:54.009Z,977.91
2018-09-22T10:17:54.061Z,977.91
2018-09-22T10:18:54.103Z,977.89
2018-09-22T10:19:54.205Z,977.86
2018-09-22T10:20:54.220Z,977.88
2018-09-22T10:21:54.258Z,977.87
2018-09-22T10:22:54.312Z,977.87
2018-09-22T10:23:54.370Z,977.91
2018-09-22T10:24:54.432Z,977.89
2018-09-22T10:25:54.465Z,977.91
2018-09-22T10:26:54.542Z,977.93
2018-09-22T10:27:54.580Z,977.96
2018-09-22T10:28:54.669Z,977.97
2018-09-22T10:29:55.316Z,977.98
2018-09-22T10:30:54.752Z,977.98
2018-09-22T10:31:54.786Z,977.93
2018-09-22T10:32:54.828Z,977.88
2018-09-22T10:33:54.880Z,977.84
2018-09-22T10:34:54.933Z,977.86
2018-09-22T10:35:55.017Z,977.87
2018-09-22T10:36:55.041Z,977.89
2018-09-22T10:37:55.089Z,977.91
2018-09-22T10:38:55.157Z,977.91
2018-09-22T10:39:55.231Z,977.88
2018-09-22T10:40:55.248Z,977.91
2018-09-22T10:41:55.317Z,977.89
2018-09-22T10:42:55.348Z,977.87
2018-09-22T10:43:55.420Z,977.84
2018-09-22T10:44:55.455Z,977.87
2018-09-22T10:45:55.501Z,977.84
2018-09-22T10:46:55.579Z,977.82
2018-09-22T10:47:55.604Z,977.78
2018-09-22T10:48:55.662Z,977.82
2018-09-22T10:49:55.713Z,977.84
2018-09-22T10:50:55.766Z,977.83
2018-09-22T10:51:55.836Z,977.83
2018-09-22T10:52:55.905Z,977.83
2018-09-22T10:53:55.913Z,977.80
2018-09-22T10:54:55.973Z,977.79
2018-09-22T10:55:56.022Z,977.81
2018-09-22T10:56:56.089Z,977.77
2018-09-22T10:57:56.172Z,977.78
2018-09-22T10:58:56.172Z,977.79
2018-09-22T10:59:56.234Z,977.80
2018-09-22T11:00:56.284Z,977.75
2018-09-22T11:01:56.349Z,977.67
2018-09-22T11:02:56.395Z,977.64
2018-09-22T11:03:56.440Z,977.64
2018-09-22T11:04:56.540Z,977.66
2018-09-22T11:05:56.534Z,977.62
2018-09-22T11:06:56.629Z,977.62
2018-09-22T11:07:56.649Z,977.53
2018-09-22T11:08:56.699Z,977.50
2018-09-22T11:09:56.746Z,977.47
2018-09-22T11:10:56.818Z,977.44
2018-09-22T11:11:56.872Z,977.45
2018-09-22T11:12:56.930Z,977.43
2018-09-22T11:13:56.951Z,977.41
2018-09-22T11:14:57.015Z,977.38
2018-09-22T11:15:57.072Z,977.34
2018-09-22T11:16:57.113Z,977.37
2018-09-22T11:17:57.864Z,977.32
2018-09-22T11:18:57.222Z,977.42
2018-09-22T11:19:57.265Z,977.42
2018-09-22T11:20:57.351Z,977.39
2018-09-22T11:21:57.394Z,977.31
2018-09-22T11:22:57.442Z,977.34
2018-09-22T11:23:57.615Z,977.35
2018-09-22T11:24:57.560Z,977.35
2018-09-22T11:25:57.607Z,977.33
2018-09-22T11:26:57.679Z,977.37
2018-09-22T11:27:57.698Z,977.35
2018-09-22T11:28:57.786Z,977.28
2018-09-22T11:29:57.800Z,977.29
2018-09-22T11:30:57.851Z,977.24
2018-09-22T11:31:57.920Z,977.24
2018-09-22T11:32:57.958Z,977.25
2018-09-22T11:33:58.036Z,977.20
2018-09-22T11:34:58.067Z,977.21
2018-09-22T11:35:58.121Z,977.22
2018-09-22T11:36:58.179Z,977.17
2018-09-22T11:37:58.232Z,977.16
2018-09-22T11:38:58.319Z,977.13
2018-09-22T11:39:58.341Z,977.12
2018-09-22T11:40:58.464Z,977.11
2018-09-22T11:41:58.448Z,977.13
2018-09-22T11:42:58.503Z,977.11
2018-09-22T11:43:58.557Z,977.11
2018-09-22T11:44:58.643Z,977.12
2018-09-22T11:45:58.689Z,977.12
2018-09-22T11:46:58.718Z,977.18
2018-09-22T11:47:58.782Z,977.14
2018-09-22T11:48:58.839Z,977.13
2018-09-22T11:49:58.883Z,977.18
2018-09-22T11:50:58.963Z,977.15
2018-09-22T11:51:59.015Z,977.09
2018-09-22T11:52:59.055Z,977.15
2018-09-22T11:53:59.105Z,977.10
2018-09-22T11:54:59.162Z,977.10
2018-09-22T11:55:59.247Z,977.13
2018-09-22T11:56:59.359Z,977.14
2018-09-22T11:57:59.329Z,977.14
2018-09-22T11:58:59.384Z,977.12
2018-09-22T11:59:59.441Z,977.10
2018-09-22T12:00:59.537Z,977.12
2018-09-22T12:01:59.612Z,977.11
2018-09-22T12:02:59.603Z,977.06
2018-09-22T12:03:59.761Z,977.05
2018-09-22T12:04:59.719Z,977.03
2018-09-22T12:06:01.555Z,977.04
2018-09-22T12:06:59.864Z,977.05
2018-09-22T12:08:00.355Z,977.02
2018-09-22T12:08:59.942Z,977.03
2018-09-22T12:10:00.357Z,977.01
2018-09-22T12:11:00.095Z,976.97
2018-09-22T12:12:00.137Z,976.93
2018-09-22T12:13:00.173Z,976.89
2018-09-22T12:14:00.278Z,976.91
2018-09-22T12:15:00.292Z,976.94
2018-09-22T12:16:00.860Z,976.96
2018-09-22T12:17:00.421Z,976.99
2018-09-22T12:18:00.460Z,976.97
2018-09-22T12:19:00.506Z,977.01
2018-09-22T12:20:00.565Z,976.97
2018-09-22T12:21:00.626Z,976.94
2018-09-22T12:22:00.702Z,976.94
2018-09-22T12:23:00.765Z,976.95
2018-09-22T12:24:00.794Z,976.95
2018-09-22T12:25:00.849Z,976.91
2018-09-22T12:26:00.912Z,976.89
2018-09-22T12:27:00.982Z,976.83
2018-09-22T12:28:01.019Z,976.85
2018-09-22T12:29:01.078Z,976.82